Time;durP1;ratioP1;P1;durP2;ratioP2;P2;SDS_P1;SDS_P2;PMS_P1;PMS_P2;Temp;Humidity;BMP_temperature;BMP_pressure;BME280_temperature;BME280_humidity;BME280_pressure;Samples;Min_cycle;Max_cycle;Signal;HPM_P1;HPM_P2
2022/12/21 00:04:29;;;;;;;369.77;26.20;;;7.90;97.30;;;;;;5376145;22;20230;-92
2022/12/21 00:07:11;;;;;;;447.77;27.97;;;7.80;97.30;;;;;;5040632;28;20176;-90
2022/12/21 00:32:17;;;;;;;273.40;26.17;;;7.30;97.30;;;;;;5431185;22;20450;-92
2022/12/21 02:25:28;;;;;;;75.97;12.63;;;6.90;97.20;;;;;;4378713;26;20219;-92
2022/12/21 02:28:27;;;;;;;14.47;10.30;;;6.80;97.20;;;;;;5041574;28;20192;-91
2022/12/21 02:31:26;;;;;;;255.10;14.70;;;7.00;97.30;;;;;;5010824;28;20175;-92
2022/12/21 02:34:00;;;;;;;351.00;19.03;;;7.10;97.30;;;;;;5015107;28;20228;-93
2022/12/21 02:36:42;;;;;;;528.13;25.13;;;6.90;97.20;;;;;;5038579;28;20200;-92
2022/12/21 02:40:05;;;;;;;443.70;27.20;;;6.90;97.20;;;;;;5038115;28;20188;-91
2022/12/21 02:45:52;;;;;;;327.27;24.57;;;6.90;97.20;;;;;;5038773;28;20157;-91
2022/12/21 02:48:35;;;;;;;46.57;18.40;;;6.90;97.20;;;;;;5038005;28;20185;-91
2022/12/21 02:51:14;;;;;;;216.87;22.37;;;7.00;97.20;;;;;;5021618;28;20173;-88
2022/12/21 02:53:43;;;;;;;382.30;29.70;;;7.00;97.20;;;;;;5021429;28;20181;-91
2022/12/21 02:56:35;;;;;;;318.63;26.20;;;7.00;97.30;;;;;;5021253;28;20188;-90
2022/12/21 02:59:03;;;;;;;285.40;25.63;;;6.90;97.20;;;;;;5021560;28;20173;-90
2022/12/21 03:01:41;;;;;;;292.70;23.70;;;6.60;97.20;;;;;;5020853;28;20174;-91
2022/12/21 03:04:21;;;;;;;238.23;21.77;;;6.50;97.20;;;;;;5021404;28;20195;-91
2022/12/21 03:07:21;;;;;;;276.80;23.80;;;6.50;97.20;;;;;;5024275;28;20177;-92
2022/12/21 03:10:14;;;;;;;275.70;23.80;;;6.50;97.20;;;;;;5024746;28;20173;-91
2022/12/21 03:13:12;;;;;;;247.93;21.30;;;6.50;97.30;;;;;;5025173;28;20194;-91
2022/12/21 03:16:03;;;;;;;269.17;22.90;;;6.60;97.30;;;;;;5027128;28;20173;-89
2022/12/21 03:18:35;;;;;;;387.33;30.03;;;6.50;97.30;;;;;;5041537;28;20165;-92
2022/12/21 03:21:16;;;;;;;339.53;27.83;;;6.40;97.30;;;;;;5025137;28;20225;-91
2022/12/21 03:23:56;;;;;;;436.97;29.70;;;6.40;97.30;;;;;;5041183;28;20284;-92
2022/12/21 03:26:32;;;;;;;243.57;29.67;;;6.40;97.30;;;;;;5024870;28;20154;-91
2022/12/21 03:29:11;;;;;;;43.57;21.73;;;6.50;97.30;;;;;;5025068;28;20169;-91
2022/12/21 03:31:42;;;;;;;285.40;27.97;;;6.60;97.30;;;;;;5024911;28;20156;-92
2022/12/21 03:34:19;;;;;;;510.73;42.97;;;6.60;97.30;;;;;;5024889;28;20158;-94
2022/12/21 03:37:00;;;;;;;434.47;36.87;;;6.50;97.30;;;;;;5041339;28;20153;-94
2022/12/21 03:39:41;;;;;;;481.07;39.93;;;6.50;97.30;;;;;;5041167;28;20194;-92
2022/12/21 03:42:16;;;;;;;143.17;30.27;;;6.40;97.30;;;;;;5024660;28;20169;-94
2022/12/21 03:44:53;;;;;;;261.73;31.33;;;6.40;97.30;;;;;;5024704;28;20189;-93
2022/12/21 03:47:34;;;;;;;163.67;27.87;;;6.40;97.30;;;;;;5024711;28;20165;-90
2022/12/21 03:50:12;;;;;;;545.83;40.13;;;6.50;97.30;;;;;;5024540;28;20180;-91
2022/12/21 03:52:52;;;;;;;798.23;51.93;;;6.50;97.30;;;;;;5024388;28;20177;-90
2022/12/21 03:55:30;;;;;;;643.00;40.47;;;6.40;97.30;;;;;;5024423;28;20169;-89
2022/12/21 03:57:57;;;;;;;280.27;25.13;;;6.40;97.30;;;;;;5024490;28;20166;-93
2022/12/21 04:00:27;;;;;;;757.80;42.27;;;6.30;97.30;;;;;;5024483;28;20164;-91
2022/12/21 04:03:08;;;;;;;496.63;29.60;;;6.30;97.20;;;;;;5024152;28;20198;-92
2022/12/21 04:05:49;;;;;;;34.83;19.73;;;6.20;97.30;;;;;;5024355;28;20154;-92
2022/12/21 04:08:16;;;;;;;504.57;30.73;;;6.20;97.20;;;;;;5024334;28;20228;-91
2022/12/21 04:10:54;;;;;;;457.07;32.83;;;6.10;97.20;;;;;;5024262;28;20173;-92
2022/12/21 04:13:23;;;;;;;497.87;34.97;;;6.00;97.20;;;;;;5024088;28;20180;-91
2022/12/21 04:16:04;;;;;;;533.03;32.87;;;5.80;97.20;;;;;;5024080;28;20161;-92
2022/12/21 04:19:57;;;;;;;455.73;31.73;;;5.80;97.20;;;;;;5022912;28;20179;-94
2022/12/21 04:21:20;;;;;;;478.73;30.53;;;5.80;97.20;;;;;;5040742;28;20176;-91
2022/12/21 04:29:22;;;;;;;544.67;34.33;;;5.80;97.20;;;;;;5040908;28;20205;-92
2022/12/21 04:31:51;;;;;;;284.47;25.23;;;5.90;97.30;;;;;;5023702;28;20178;-93
2022/12/21 04:34:20;;;;;;;361.77;28.87;;;5.90;97.20;;;;;;5023621;28;20192;-91
2022/12/21 04:39:30;;;;;;;256.13;25.87;;;6.00;97.30;;;;;;5040757;28;20183;-90
2022/12/21 04:41:58;;;;;;;295.10;26.77;;;6.00;97.30;;;;;;5022972;28;20185;-91
2022/12/21 04:44:32;;;;;;;253.70;25.30;;;6.00;97.30;;;;;;5023425;28;20277;-93
2022/12/21 04:46:58;;;;;;;48.57;19.40;;;5.90;97.30;;;;;;5023577;28;20162;-91
2022/12/21 04:49:32;;;;;;;170.13;23.70;;;6.00;97.30;;;;;;5023522;28;20225;-90
2022/12/21 04:52:03;;;;;;;28.77;19.07;;;5.90;97.30;;;;;;5023353;28;20205;-90
2022/12/21 04:54:39;;;;;;;94.87;21.23;;;6.00;97.30;;;;;;5023529;28;20272;-92
2022/12/21 04:57:16;;;;;;;182.83;21.27;;;6.00;97.20;;;;;;5023949;28;20216;-92
2022/12/21 04:59:44;;;;;;;162.43;22.73;;;5.80;97.20;;;;;;5023211;28;20169;-93
2022/12/21 05:02:13;;;;;;;114.47;22.50;;;5.70;97.20;;;;;;5023105;28;20201;-91
2022/12/21 05:04:44;;;;;;;37.37;20.93;;;5.70;97.30;;;;;;5023094;28;20209;-91
2022/12/21 05:07:13;;;;;;;188.93;25.53;;;5.80;97.30;;;;;;5023135;28;20164;-91
2022/12/21 05:09:39;;;;;;;145.37;23.27;;;5.80;97.30;;;;;;5023172;28;20158;-90
2022/12/21 05:12:07;;;;;;;164.80;23.97;;;5.80;97.30;;;;;;5023040;28;20195;-92
2022/12/21 05:14:36;;;;;;;251.77;27.57;;;5.80;97.30;;;;;;5022524;28;20180;-91
2022/12/21 05:17:16;;;;;;;218.53;27.23;;;5.60;97.30;;;;;;5022896;28;20252;-94
2022/12/21 05:19:46;;;;;;;180.13;23.37;;;5.60;97.20;;;;;;5022915;28;20162;-92
2022/12/21 05:22:16;;;;;;;66.40;20.83;;;5.70;97.30;;;;;;5022721;28;20182;-90
2022/12/21 05:24:55;;;;;;;202.97;23.13;;;5.70;97.30;;;;;;5022417;28;20236;-91
2022/12/21 05:27:29;;;;;;;185.60;24.73;;;5.70;97.30;;;;;;5022727;28;20161;-91
2022/12/21 05:30:03;;;;;;;113.43;21.17;;;5.70;97.30;;;;;;5022462;28;20158;-92
2022/12/21 05:32:37;;;;;;;81.10;23.90;;;5.70;97.30;;;;;;5022195;28;20181;-92
2022/12/21 05:35:11;;;;;;;230.80;29.70;;;5.70;97.30;;;;;;5022694;28;20184;-92
2022/12/21 05:37:40;;;;;;;130.53;27.27;;;5.70;97.30;;;;;;5020808;28;20179;-90
2022/12/21 05:40:07;;;;;;;64.00;26.87;;;5.70;97.30;;;;;;5020987;28;20188;-93
2022/12/21 05:42:33;;;;;;;101.30;28.60;;;5.70;97.30;;;;;;5022405;28;20181;-91
2022/12/21 05:45:07;;;;;;;244.20;32.13;;;5.70;97.30;;;;;;5022388;28;20185;-92
2022/12/21 05:47:53;;;;;;;181.50;30.40;;;5.70;97.30;;;;;;5022312;28;20192;-90
2022/12/21 05:50:27;;;;;;;124.00;29.60;;;5.70;97.30;;;;;;5022142;28;20157;-92
2022/12/21 05:52:58;;;;;;;228.27;32.00;;;5.70;97.30;;;;;;5022342;28;20192;-92
2022/12/21 05:55:39;;;;;;;100.40;31.47;;;5.70;97.30;;;;;;5022207;28;20161;-91
2022/12/21 05:58:14;;;;;;;112.30;31.17;;;5.60;97.30;;;;;;5021482;28;20151;-91
2022/12/21 06:00:48;;;;;;;113.40;32.03;;;5.50;97.20;;;;;;5021531;28;20259;-92
2022/12/21 06:03:20;;;;;;;125.53;33.83;;;5.50;97.20;;;;;;5021441;28;20228;-91
2022/12/21 06:06:20;;;;;;;;;;;;;;;;;;;;;
2022/12/21 06:08:52;;;;;;;194.77;34.87;;;5.50;97.20;;;;;;5038871;28;20154;-90
2022/12/21 06:11:30;;;;;;;178.50;34.23;;;5.40;97.20;;;;;;5021947;28;20199;-90
2022/12/21 06:14:01;;;;;;;128.60;34.17;;;5.30;97.10;;;;;;5021836;28;20181;-91
2022/12/21 06:16:27;;;;;;;150.57;32.77;;;5.20;97.20;;;;;;5021948;28;20173;-92
2022/12/21 06:18:55;;;;;;;85.70;33.87;;;5.20;97.20;;;;;;5021780;28;20157;-91
2022/12/21 06:21:27;;;;;;;139.57;35.37;;;5.20;97.20;;;;;;5021879;28;20169;-92
2022/12/21 06:23:56;;;;;;;36.10;32.77;;;5.20;97.20;;;;;;5021428;28;20288;-92
2022/12/21 06:26:25;;;;;;;94.63;31.53;;;5.20;97.20;;;;;;5021861;28;20177;-91
2022/12/21 06:29:00;;;;;;;123.40;33.27;;;5.20;97.20;;;;;;5021822;28;20161;-90
2022/12/21 06:31:28;;;;;;;239.70;35.80;;;5.20;97.20;;;;;;5021087;28;20184;-91
2022/12/21 06:33:55;;;;;;;34.83;31.63;;;5.20;97.20;;;;;;5021555;28;20181;-90
2022/12/21 06:36:23;;;;;;;244.33;35.07;;;5.20;97.20;;;;;;5021638;28;20173;-91
2022/12/21 06:38:58;;;;;;;166.07;34.73;;;5.20;97.20;;;;;;5021251;28;20165;-92
2022/12/21 06:41:27;;;;;;;35.17;32.10;;;5.20;97.20;;;;;;5020930;28;20181;-92
2022/12/21 06:43:55;;;;;;;158.50;34.53;;;5.30;97.20;;;;;;5021042;28;20216;-92
2022/12/21 06:46:26;;;;;;;95.60;34.33;;;5.20;97.20;;;;;;5021675;28;20157;-92
2022/12/21 06:49:00;;;;;;;171.23;38.73;;;5.30;97.20;;;;;;5021575;28;20212;-93
2022/12/21 06:51:34;;;;;;;79.33;34.83;;;5.30;97.20;;;;;;5021538;28;20181;-92
2022/12/21 06:54:03;;;;;;;155.57;36.87;;;5.30;97.20;;;;;;5035510;23;20197;-92
2022/12/21 06:56:37;;;;;;;225.87;37.57;;;5.30;97.20;;;;;;5032557;28;20169;-91
2022/12/21 06:59:03;;;;;;;217.63;35.83;;;5.30;97.20;;;;;;5038076;28;20169;-92
2022/12/21 07:01:32;;;;;;;69.20;34.43;;;5.20;97.20;;;;;;5037798;28;20179;-92
2022/12/21 07:03:59;;;;;;;200.83;37.77;;;5.20;97.20;;;;;;5017993;28;20204;-91
2022/12/21 07:06:27;;;;;;;282.53;41.47;;;5.20;97.20;;;;;;5017472;28;20170;-91
2022/12/21 07:09:01;;;;;;;170.07;38.57;;;5.30;97.20;;;;;;5017667;28;20169;-90
2022/12/21 07:11:32;;;;;;;181.50;34.10;;;5.30;97.20;;;;;;5016767;28;20166;-92
2022/12/21 07:14:15;;;;;;;232.60;40.33;;;5.30;97.20;;;;;;5017997;28;20175;-91
2022/12/21 07:16:50;;;;;;;201.23;38.47;;;5.30;97.20;;;;;;5018148;28;20155;-91
2022/12/21 07:19:19;;;;;;;158.23;35.53;;;5.30;97.20;;;;;;5018083;28;20162;-92
2022/12/21 07:21:45;;;;;;;203.20;36.13;;;5.30;97.20;;;;;;5017787;28;20166;-91
2022/12/21 07:24:14;;;;;;;50.77;35.13;;;5.30;97.20;;;;;;5017883;28;20192;-91
2022/12/21 07:26:51;;;;;;;183.90;39.33;;;5.30;97.20;;;;;;5008306;28;20186;-93
2022/12/21 07:29:20;;;;;;;155.90;34.23;;;5.30;97.20;;;;;;5017955;28;20166;-93
2022/12/21 07:31:51;;;;;;;205.60;39.07;;;5.30;97.20;;;;;;5017551;28;20209;-92
2022/12/21 07:34:29;;;;;;;130.57;30.63;;;5.30;97.20;;;;;;5017876;28;20189;-90
2022/12/21 07:37:01;;;;;;;113.10;27.07;;;5.30;97.20;;;;;;5018006;28;20189;-91
2022/12/21 07:39:49;;;;;;;111.70;29.27;;;5.30;97.20;;;;;;5017983;28;20162;-93
2022/12/21 07:42:32;;;;;;;70.67;27.20;;;5.20;97.20;;;;;;5016751;28;20198;-92
2022/12/21 07:45:02;;;;;;;146.20;28.30;;;5.20;97.20;;;;;;5017805;28;20202;-90
2022/12/21 07:47:28;;;;;;;126.87;27.23;;;5.10;97.20;;;;;;5017849;28;20163;-91
2022/12/21 07:50:00;;;;;;;175.87;27.23;;;4.90;97.20;;;;;;5017678;28;20178;-91
2022/12/21 07:52:35;;;;;;;188.90;29.80;;;4.80;97.20;;;;;;5019623;28;20190;-91
2022/12/21 07:55:16;;;;;;;139.53;27.77;;;4.80;97.20;;;;;;5021124;28;20189;-91
2022/12/21 07:57:52;;;;;;;121.80;26.00;;;4.80;97.20;;;;;;5021117;28;20181;-91
2022/12/21 08:00:22;;;;;;;127.80;25.17;;;4.80;97.20;;;;;;5021141;28;20154;-92
2022/12/21 08:02:56;;;;;;;76.53;25.20;;;4.80;97.20;;;;;;5020982;28;20200;-92
2022/12/21 08:33:54;;;;;;;131.87;27.17;;;5.00;97.40;;;;;;938087;22;20455;-92
2022/12/21 08:36:22;;;;;;;153.17;29.90;;;5.00;97.40;;;;;;5037267;28;20177;-93
2022/12/21 08:38:48;;;;;;;180.30;31.13;;;5.00;97.40;;;;;;5039181;28;20176;-91
2022/12/21 08:41:17;;;;;;;133.07;28.90;;;5.10;97.40;;;;;;5039320;28;20224;-92
2022/12/21 08:43:47;;;;;;;164.20;31.73;;;5.20;97.40;;;;;;5039478;28;20205;-93
2022/12/21 08:46:13;;;;;;;231.67;29.83;;;5.20;97.40;;;;;;5039863;28;20162;-92
2022/12/21 08:48:46;;;;;;;180.13;30.50;;;5.30;97.40;;;;;;5039865;28;20188;-92
2022/12/21 08:51:12;;;;;;;155.27;29.03;;;5.30;97.40;;;;;;5404048;22;20236;-90
2022/12/21 08:53:38;;;;;;;131.87;27.30;;;5.40;97.50;;;;;;5018763;28;20214;-89
2022/12/21 08:58:48;;;;;;;207.80;30.57;;;5.40;97.40;;;;;;5850400;22;20209;-91
2022/12/21 09:01:26;;;;;;;251.80;34.27;;;5.40;97.40;;;;;;5039879;28;20187;-92
2022/12/21 09:03:52;;;;;;;229.83;31.37;;;5.40;97.40;;;;;;5038692;28;20217;-90
2022/12/21 09:06:26;;;;;;;280.27;31.47;;;5.50;97.50;;;;;;5039559;28;20161;-90
2022/12/21 09:08:56;;;;;;;230.67;31.23;;;5.40;97.40;;;;;;5039070;28;20175;-93
2022/12/21 09:11:24;;;;;;;251.83;31.03;;;5.40;97.50;;;;;;5035417;28;20197;-94
2022/12/21 09:14:11;;;;;;;214.17;30.43;;;5.40;97.40;;;;;;5036169;28;20189;-91
2022/12/21 09:26:58;;;;;;;164.60;32.77;;;5.70;97.50;;;;;;3028241;22;20225;-91
2022/12/21 09:29:27;;;;;;;248.20;33.80;;;5.80;97.50;;;;;;5037871;28;20165;-90
2022/12/21 09:31:59;;;;;;;325.77;38.87;;;5.80;97.50;;;;;;5039041;28;20193;-91
2022/12/21 09:34:27;;;;;;;368.57;39.43;;;5.80;97.50;;;;;;5067933;22;20335;-90
2022/12/21 09:36:59;;;;;;;343.60;37.77;;;5.80;97.50;;;;;;5038674;28;20166;-93
2022/12/21 09:39:30;;;;;;;254.33;37.90;;;5.80;97.50;;;;;;5037792;28;20194;-89
2022/12/21 09:42:17;;;;;;;270.53;35.60;;;5.90;97.60;;;;;;5038633;28;20261;-93
2022/12/21 09:45:23;;;;;;;237.67;35.40;;;5.90;97.60;;;;;;5037903;28;20232;-90
2022/12/21 09:48:07;;;;;;;359.73;39.00;;;5.90;97.60;;;;;;5038383;28;20177;-91
2022/12/21 09:50:43;;;;;;;304.87;35.67;;;6.00;97.60;;;;;;5038731;28;20257;-90
2022/12/21 09:53:25;;;;;;;313.23;37.47;;;6.00;97.60;;;;;;5038559;28;20217;-91
2022/12/21 09:55:55;;;;;;;260.53;38.10;;;6.00;97.60;;;;;;5035688;28;20225;-93
2022/12/21 09:58:43;;;;;;;303.63;38.87;;;6.10;97.60;;;;;;5035062;28;20276;-93
2022/12/21 10:01:48;;;;;;;233.73;37.20;;;6.10;97.60;;;;;;5034784;28;20192;-93
2022/12/21 10:04:51;;;;;;;232.57;37.77;;;6.30;97.60;;;;;;5033663;28;20259;-93
2022/12/21 10:07:55;;;;;;;366.17;40.53;;;6.20;97.60;;;;;;5031188;28;20237;-93
2022/12/21 10:11:10;;;;;;;;;;;;;;;;;;;;;
2022/12/21 10:14:08;;;;;;;239.73;40.20;;;6.30;97.60;;;;;;5036163;28;20213;-93
2022/12/21 10:17:18;;;;;;;208.77;36.80;;;6.40;97.60;;;;;;5035495;28;20173;-93
2022/12/21 10:28:12;;;;;;;209.73;40.33;;;6.50;97.70;;;;;;4258057;22;20236;-92
2022/12/21 10:30:40;;;;;;;167.93;37.30;;;6.50;97.70;;;;;;5020475;28;20173;-93
2022/12/21 10:33:12;;;;;;;163.40;34.50;;;6.50;97.70;;;;;;5021212;28;20224;-93
2022/12/21 10:35:39;;;;;;;235.07;39.73;;;6.60;97.70;;;;;;5019654;28;20193;-93
2022/12/21 10:38:17;;;;;;;154.40;36.50;;;6.60;97.70;;;;;;5026339;28;20177;-92
2022/12/21 10:40:53;;;;;;;251.77;38.07;;;6.60;97.70;;;;;;5024120;28;20173;-92
2022/12/21 10:43:20;;;;;;;288.67;40.10;;;6.60;97.70;;;;;;5021819;28;20327;-90
2022/12/21 10:45:46;;;;;;;193.23;35.60;;;6.50;97.70;;;;;;5030600;28;20184;-93
2022/12/21 10:48:12;;;;;;;179.23;37.30;;;6.60;97.70;;;;;;5028400;28;20204;-92
2022/12/21 10:51:05;;;;;;;221.10;42.43;;;6.60;97.70;;;;;;5027294;28;20196;-94
2022/12/21 10:53:30;;;;;;;182.73;38.73;;;6.60;97.70;;;;;;5030986;28;20220;-92
2022/12/21 10:56:05;;;;;;;209.60;39.50;;;6.70;97.70;;;;;;5032927;28;20162;-90
2022/12/21 10:58:34;;;;;;;127.17;35.50;;;6.70;97.70;;;;;;5034081;28;20180;-92
2022/12/21 11:01:18;;;;;;;132.80;38.43;;;6.70;97.70;;;;;;5032935;28;20181;-92
2022/12/21 11:03:43;;;;;;;146.07;39.03;;;6.70;97.70;;;;;;5019631;28;20683;-91
2022/12/21 11:06:18;;;;;;;151.20;38.13;;;6.70;97.70;;;;;;5015584;28;20173;-92
2022/12/21 11:08:51;;;;;;;149.30;38.60;;;6.70;97.70;;;;;;5018544;28;20184;-92
2022/12/21 11:11:32;;;;;;;146.30;39.07;;;6.70;97.70;;;;;;5027199;28;20157;-92
2022/12/21 11:14:03;;;;;;;164.83;38.07;;;6.70;97.70;;;;;;5022648;28;20177;-92
2022/12/21 11:16:32;;;;;;;179.33;41.80;;;6.70;97.80;;;;;;5025381;28;20173;-93
2022/12/21 11:19:01;;;;;;;184.13;41.23;;;6.70;97.80;;;;;;5026044;28;20177;-93
2022/12/21 11:21:34;;;;;;;207.57;44.13;;;6.70;97.80;;;;;;5022640;28;20204;-92
2022/12/21 11:24:16;;;;;;;203.30;43.67;;;6.70;97.80;;;;;;5013091;28;20208;-92
2022/12/21 11:26:49;;;;;;;198.27;42.10;;;6.70;97.70;;;;;;5013956;28;20185;-92
2022/12/21 11:29:26;;;;;;;174.70;42.47;;;6.70;97.80;;;;;;5016990;28;20181;-91
2022/12/21 11:31:53;;;;;;;168.27;41.77;;;6.70;97.80;;;;;;5023641;28;20618;-92
2022/12/21 11:34:28;;;;;;;175.00;41.80;;;6.70;97.80;;;;;;5023591;28;20231;-92
2022/12/21 11:37:00;;;;;;;171.90;44.50;;;6.70;97.80;;;;;;5022624;28;20755;-92
2022/12/21 11:39:29;;;;;;;170.63;40.83;;;6.70;97.80;;;;;;5031117;28;20241;-92
2022/12/21 11:41:55;;;;;;;179.23;43.90;;;6.70;97.80;;;;;;5020039;28;20257;-92
2022/12/21 11:44:29;;;;;;;179.40;43.00;;;6.70;97.80;;;;;;5025762;28;20264;-92
2022/12/21 11:47:13;;;;;;;171.60;41.57;;;6.70;97.80;;;;;;5024529;28;20628;-92
2022/12/21 11:50:00;;;;;;;160.43;43.03;;;6.70;97.80;;;;;;5023948;28;20177;-92
2022/12/21 11:52:42;;;;;;;168.23;43.20;;;6.70;97.80;;;;;;5027406;28;20586;-92
2022/12/21 11:55:29;;;;;;;159.57;40.43;;;6.70;97.80;;;;;;5030148;28;20177;-92
2022/12/21 11:58:23;;;;;;;170.73;42.73;;;6.70;97.80;;;;;;5028621;28;20176;-92
2022/12/21 12:01:14;;;;;;;154.53;40.37;;;6.70;97.80;;;;;;5036477;28;20169;-93
2022/12/21 12:03:55;;;;;;;149.23;41.40;;;6.70;97.80;;;;;;5040041;28;20201;-91
2022/12/21 12:06:51;;;;;;;144.03;39.77;;;6.70;97.80;;;;;;5039649;28;20179;-93
2022/12/21 12:09:35;;;;;;;149.30;41.03;;;6.70;97.80;;;;;;5037869;28;20166;-90
2022/12/21 12:12:48;;;;;;;141.87;39.47;;;6.70;97.80;;;;;;5039781;28;20197;-93
2022/12/21 12:15:30;;;;;;;136.90;37.50;;;6.60;97.70;;;;;;5024646;28;20284;-91
2022/12/21 12:18:22;;;;;;;136.47;39.93;;;6.60;97.70;;;;;;5027476;28;20225;-92
2022/12/21 12:21:13;;;;;;;136.77;39.53;;;6.60;97.70;;;;;;5023233;28;20253;-91
2022/12/21 12:23:58;;;;;;;158.37;40.03;;;6.60;97.70;;;;;;5035634;28;20212;-91
2022/12/21 12:27:00;;;;;;;146.53;39.00;;;6.60;97.70;;;;;;5018043;28;20193;-93
2022/12/21 12:29:40;;;;;;;141.57;34.77;;;6.60;97.80;;;;;;5034756;28;20196;-93
2022/12/21 12:32:20;;;;;;;151.53;36.80;;;6.70;97.70;;;;;;5099645;22;20225;-93
2022/12/21 12:35:27;;;;;;;151.17;35.97;;;6.70;97.70;;;;;;5032611;28;20257;-92
2022/12/21 12:38:02;;;;;;;147.77;36.37;;;6.80;97.70;;;;;;5027538;28;20193;-92
2022/12/21 12:40:51;;;;;;;150.37;37.80;;;6.70;97.70;;;;;;5021004;28;20201;-93
2022/12/21 12:43:50;;;;;;;152.33;38.73;;;6.70;97.70;;;;;;5026369;28;20261;-93
2022/12/21 12:46:39;;;;;;;163.97;40.10;;;6.70;97.70;;;;;;5028414;28;20170;-93
2022/12/21 12:49:25;;;;;;;161.03;39.57;;;6.70;97.70;;;;;;5032154;28;20166;-93
2022/12/21 12:51:57;;;;;;;172.30;41.30;;;6.80;97.70;;;;;;5034373;28;20213;-93
2022/12/21 12:54:37;;;;;;;158.53;41.10;;;6.70;97.70;;;;;;5032697;28;20265;-92
2022/12/21 12:57:25;;;;;;;172.90;40.20;;;6.70;97.70;;;;;;5030889;28;20160;-91
2022/12/21 13:00:04;;;;;;;160.73;40.70;;;6.70;97.70;;;;;;5034818;28;20154;-90
2022/12/21 13:02:51;;;;;;;171.83;45.07;;;6.60;97.70;;;;;;5033406;28;20231;-92
2022/12/21 13:05:45;;;;;;;164.27;41.60;;;6.60;97.70;;;;;;5097139;22;20232;-93
2022/12/21 13:08:48;;;;;;;171.67;41.07;;;6.60;97.70;;;;;;5032665;28;20154;-93
2022/12/21 13:11:25;;;;;;;169.03;41.57;;;6.60;97.70;;;;;;5045375;22;20248;-93
2022/12/21 13:14:22;;;;;;;164.70;42.17;;;6.70;97.70;;;;;;5032938;28;20220;-93
2022/12/21 13:17:12;;;;;;;170.20;41.83;;;6.70;97.70;;;;;;5039360;28;20146;-90
2022/12/21 13:19:40;;;;;;;174.63;43.13;;;6.70;97.70;;;;;;5038859;28;20164;-92
2022/12/21 13:22:10;;;;;;;171.30;43.10;;;6.70;97.70;;;;;;5036760;28;20189;-93
2022/12/21 13:24:54;;;;;;;176.80;44.17;;;6.70;97.70;;;;;;5034404;28;20216;-93
2022/12/21 13:27:26;;;;;;;187.60;46.20;;;6.70;97.70;;;;;;5027371;28;20166;-93
2022/12/21 13:32:31;;;;;;;161.87;44.93;;;6.70;97.70;;;;;;5130398;22;20233;-93
2022/12/21 13:35:19;;;;;;;160.20;43.10;;;6.70;97.70;;;;;;5077230;22;20253;-93
2022/12/21 13:37:50;;;;;;;189.67;45.03;;;6.70;97.70;;;;;;5036669;28;20216;-92
2022/12/21 13:40:25;;;;;;;171.23;44.47;;;6.70;97.70;;;;;;5038338;28;20165;-92
2022/12/21 13:42:58;;;;;;;183.60;43.95;;;6.70;97.70;;;;;;5038510;28;20260;-92
2022/12/21 13:45:33;;;;;;;180.17;45.50;;;6.70;97.70;;;;;;5038284;28;20205;-91
2022/12/21 13:48:03;;;;;;;181.10;44.77;;;6.50;97.60;;;;;;5038461;28;20181;-93
2022/12/21 13:58:36;;;;;;;166.07;42.37;;;6.50;97.60;;;;;;2904505;22;20239;-93
2022/12/21 14:01:40;;;;;;;181.20;45.53;;;6.50;97.60;;;;;;5036118;28;20193;-92
2022/12/21 14:04:50;;;;;;;162.80;45.33;;;6.40;97.60;;;;;;5009189;28;20557;-90
2022/12/21 14:08:02;;;;;;;163.50;44.43;;;6.50;97.60;;;;;;5027891;28;20205;-92
2022/12/21 14:10:41;;;;;;;165.53;43.13;;;6.40;97.60;;;;;;5014496;28;20559;-93
2022/12/21 14:13:25;;;;;;;163.90;42.37;;;6.40;97.60;;;;;;5007352;28;20264;-93
2022/12/21 14:16:00;;;;;;;166.60;42.70;;;6.40;97.50;;;;;;5003904;28;20601;-93
2022/12/21 14:18:34;;;;;;;158.93;42.33;;;6.40;97.50;;;;;;5008487;28;20174;-93
2022/12/21 14:21:21;;;;;;;156.87;44.07;;;6.30;97.50;;;;;;5011144;28;20181;-94
2022/12/21 14:23:50;;;;;;;164.07;41.80;;;6.30;97.50;;;;;;5005739;28;20216;-93
2022/12/21 14:26:34;;;;;;;161.70;42.50;;;6.30;97.40;;;;;;5003037;28;20533;-93
2022/12/21 14:29:21;;;;;;;157.97;42.60;;;6.40;97.40;;;;;;5004055;28;20200;-94
2022/12/21 14:31:57;;;;;;;148.73;41.67;;;6.40;97.40;;;;;;5004448;28;20200;-93
2022/12/21 14:34:25;;;;;;;143.13;41.17;;;6.30;97.30;;;;;;5001106;28;20240;-93
2022/12/21 14:37:09;;;;;;;167.67;42.60;;;6.20;97.30;;;;;;5003839;28;20182;-93
2022/12/21 14:39:40;;;;;;;162.33;43.60;;;6.30;97.30;;;;;;5006682;28;20178;-94
2022/12/21 14:42:40;;;;;;;174.37;46.43;;;6.30;97.30;;;;;;5006571;28;20209;-92
2022/12/21 14:45:20;;;;;;;153.67;42.73;;;6.30;97.30;;;;;;5010456;28;20241;-93
2022/12/21 14:47:49;;;;;;;167.97;45.40;;;6.20;97.30;;;;;;5017373;28;20165;-93
2022/12/21 14:50:21;;;;;;;156.90;43.13;;;6.10;97.20;;;;;;5011137;28;20182;-93
2022/12/21 14:52:58;;;;;;;164.57;44.30;;;6.10;97.20;;;;;;5010589;28;20226;-93
2022/12/21 14:55:30;;;;;;;147.83;42.27;;;5.90;97.10;;;;;;5006178;28;20185;-92
2022/12/21 14:57:56;;;;;;;146.83;40.40;;;5.80;97.10;;;;;;5004970;28;20193;-93
2022/12/21 15:00:29;;;;;;;153.73;44.10;;;5.80;97.10;;;;;;5005768;28;20196;-92
2022/12/21 15:03:17;;;;;;;145.73;41.57;;;5.60;97.10;;;;;;5009239;28;20281;-93
2022/12/21 15:05:48;;;;;;;152.87;40.07;;;5.50;97.00;;;;;;5015655;28;20201;-92
2022/12/21 15:08:14;;;;;;;139.57;39.63;;;5.40;97.00;;;;;;5013721;28;20197;-93
2022/12/21 15:10:45;;;;;;;145.77;40.23;;;5.40;97.00;;;;;;5016323;28;20178;-92
2022/12/21 15:13:29;;;;;;;147.03;40.50;;;5.20;97.00;;;;;;5016490;28;20698;-93
2022/12/21 15:16:31;;;;;;;146.20;40.10;;;5.20;97.00;;;;;;5015019;28;20257;-93
2022/12/21 15:18:58;;;;;;;137.57;38.63;;;5.10;97.00;;;;;;5002300;28;20300;-93
2022/12/21 15:21:40;;;;;;;148.23;40.73;;;5.00;97.00;;;;;;5009496;28;20178;-93
2022/12/21 15:24:06;;;;;;;139.50;38.90;;;5.00;97.00;;;;;;5008235;28;20202;-92
2022/12/21 15:27:03;;;;;;;143.70;39.47;;;4.90;96.90;;;;;;5012339;28;20620;-92
2022/12/21 15:29:34;;;;;;;137.13;36.93;;;4.80;96.90;;;;;;5020924;28;20170;-92
2022/12/21 15:32:07;;;;;;;138.80;39.57;;;4.90;96.90;;;;;;5019437;28;20202;-92
2022/12/21 15:34:39;;;;;;;144.57;39.37;;;4.80;96.90;;;;;;5018730;28;20177;-93
2022/12/21 15:37:10;;;;;;;153.07;40.30;;;4.80;96.90;;;;;;5016942;28;20211;-93
2022/12/21 15:39:40;;;;;;;136.53;37.43;;;4.70;96.90;;;;;;5017870;28;20173;-93
2022/12/21 15:42:08;;;;;;;156.73;40.00;;;4.60;96.90;;;;;;5018578;28;20189;-94
2022/12/21 15:44:41;;;;;;;156.77;39.83;;;4.60;96.90;;;;;;5020116;28;20229;-92
2022/12/21 15:47:29;;;;;;;157.53;40.33;;;4.60;96.90;;;;;;5014993;28;20181;-92
2022/12/21 15:50:14;;;;;;;155.50;40.47;;;4.60;96.90;;;;;;5016827;28;20237;-91
2022/12/21 15:52:42;;;;;;;139.40;40.00;;;4.50;96.90;;;;;;5021305;28;20193;-90
2022/12/21 15:55:15;;;;;;;139.53;38.10;;;4.50;96.90;;;;;;5021350;28;20168;-91
2022/12/21 15:57:48;;;;;;;145.67;40.63;;;4.50;96.90;;;;;;5020634;28;20189;-92
2022/12/21 16:00:20;;;;;;;150.10;40.83;;;4.50;96.90;;;;;;5019655;28;20166;-93
2022/12/21 16:02:51;;;;;;;146.63;43.17;;;4.60;96.90;;;;;;5018540;28;20186;-90
2022/12/21 16:05:22;;;;;;;153.00;43.60;;;4.60;96.90;;;;;;5020703;28;20190;-92
2022/12/21 16:07:49;;;;;;;161.07;45.50;;;4.50;96.90;;;;;;5021070;28;20157;-91
2022/12/21 16:10:24;;;;;;;159.63;45.03;;;4.50;96.90;;;;;;5018046;28;20181;-92
2022/12/21 16:13:11;;;;;;;155.87;45.37;;;4.50;96.90;;;;;;5020193;28;20200;-93
2022/12/21 16:15:39;;;;;;;151.33;45.23;;;4.50;96.90;;;;;;5016836;28;20236;-92
2022/12/21 16:18:08;;;;;;;145.67;46.40;;;4.50;96.90;;;;;;5014280;28;20184;-93
2022/12/21 16:20:36;;;;;;;148.77;45.63;;;4.40;96.90;;;;;;5013359;28;20190;-93
2022/12/21 16:23:03;;;;;;;151.23;46.80;;;4.30;96.80;;;;;;5013861;28;20216;-94
2022/12/21 16:25:34;;;;;;;146.83;47.13;;;4.30;96.80;;;;;;5014289;28;20253;-92
2022/12/21 16:28:01;;;;;;;146.13;46.53;;;4.30;96.80;;;;;;5006368;28;20177;-92
2022/12/21 16:30:27;;;;;;;140.80;47.97;;;4.20;96.80;;;;;;5010411;28;20178;-93
2022/12/21 16:32:53;;;;;;;144.03;48.67;;;4.30;96.90;;;;;;5007542;28;20228;-93
2022/12/21 16:35:27;;;;;;;159.13;49.23;;;4.20;96.80;;;;;;5007955;28;20273;-93
2022/12/21 16:37:54;;;;;;;158.30;49.70;;;4.20;96.80;;;;;;5004230;28;20631;-93
2022/12/21 16:40:25;;;;;;;148.90;51.63;;;4.20;96.80;;;;;;5004963;28;20236;-93
2022/12/21 16:43:00;;;;;;;152.97;51.17;;;4.10;96.90;;;;;;5010431;28;20198;-93
2022/12/21 16:45:35;;;;;;;168.53;53.07;;;4.20;96.90;;;;;;5004869;28;20642;-93
2022/12/21 16:48:16;;;;;;;152.53;51.27;;;4.30;96.90;;;;;;5006742;28;20189;-92